Time;durP1;ratioP1;P1;durP2;ratioP2;P2;SDS_P1;SDS_P2;PMS_P1;PMS_P2;Temp;Humidity;BMP_temperature;BMP_pressure;BME280_temperature;BME280_humidity;BME280_pressure;Samples;Min_cycle;Max_cycle;Signal;HPM_P1;HPM_P2
2023/04/27 00:00:41;;;;;;;7.50;3.45;;;;;7.50;98636.00;;;;5055065;28;20055;-58
2023/04/27 00:03:07;;;;;;;9.68;3.63;;;;;7.50;98642.00;;;;5053951;28;20056;-57
2023/04/27 00:05:35;;;;;;;7.22;3.65;;;;;7.60;98644.00;;;;5054780;28;20049;-58
2023/04/27 00:08:02;;;;;;;7.63;4.18;;;;;7.60;98647.00;;;;5054771;28;20045;-57
2023/04/27 00:10:29;;;;;;;6.75;4.43;;;;;7.60;98640.00;;;;5054730;28;20067;-58
2023/04/27 00:12:55;;;;;;;6.55;3.40;;;;;7.50;98645.00;;;;5054161;28;20049;-57
2023/04/27 00:15:22;;;;;;;5.20;3.30;;;;;7.50;98635.00;;;;5054026;28;20045;-57
2023/04/27 00:17:49;;;;;;;7.95;3.58;;;;;7.30;98636.00;;;;5054216;28;20158;-58
2023/04/27 00:20:15;;;;;;;4.68;3.30;;;;;7.20;98632.00;;;;5054466;28;20127;-56
2023/04/27 00:22:42;;;;;;;7.22;3.42;;;;;7.10;98633.00;;;;5054079;28;20053;-58
2023/04/27 00:25:08;;;;;;;6.03;3.88;;;;;7.10;98637.00;;;;5053709;28;20098;-58
2023/04/27 00:27:35;;;;;;;5.05;3.42;;;;;7.00;98636.00;;;;5053650;28;20068;-58
2023/04/27 00:30:02;;;;;;;7.05;3.60;;;;;7.00;98631.00;;;;5053446;28;20052;-57
2023/04/27 00:32:29;;;;;;;7.90;3.95;;;;;7.00;98635.00;;;;5052417;28;20056;-58
2023/04/27 00:34:55;;;;;;;7.50;4.13;;;;;7.00;98636.00;;;;5053697;28;20119;-58
2023/04/27 00:37:22;;;;;;;4.82;3.65;;;;;7.10;98638.00;;;;5053548;28;20090;-57
2023/04/27 00:39:48;;;;;;;7.90;4.35;;;;;7.10;98637.00;;;;5053379;28;20041;-58
2023/04/27 00:42:18;;;;;;;6.93;3.63;;;;;7.10;98637.00;;;;5052248;28;20053;-58
2023/04/27 00:44:46;;;;;;;7.88;4.00;;;;;7.00;98640.00;;;;5052583;28;20059;-54
2023/04/27 00:47:13;;;;;;;7.70;4.25;;;;;7.00;98633.00;;;;5052514;28;20037;-59
2023/04/27 00:49:40;;;;;;;8.15;3.92;;;;;7.10;98637.00;;;;5053733;28;20507;-58
2023/04/27 00:52:06;;;;;;;8.60;3.78;;;;;7.10;98633.00;;;;5053711;28;20410;-58
2023/04/27 00:54:34;;;;;;;7.50;3.83;;;;;7.00;98626.00;;;;5053202;28;20052;-59
2023/04/27 00:57:02;;;;;;;8.00;3.60;;;;;6.90;98620.00;;;;5053707;28;20041;-58
2023/04/27 00:59:29;;;;;;;6.13;3.88;;;;;7.00;98622.00;;;;5053874;28;20047;-59
2023/04/27 01:01:56;;;;;;;9.43;4.18;;;;;7.00;98622.00;;;;5054924;28;20379;-58
2023/04/27 01:04:23;;;;;;;4.13;3.63;;;;;7.00;98624.00;;;;5053718;28;20390;-58
2023/04/27 01:06:50;;;;;;;5.18;3.75;;;;;6.90;98625.00;;;;5051865;28;20409;-58
2023/04/27 01:09:18;;;;;;;8.88;4.13;;;;;6.80;98624.00;;;;5051719;28;20045;-58
2023/04/27 01:11:48;;;;;;;7.60;4.03;;;;;6.60;98629.00;;;;5053011;28;20064;-57
2023/04/27 01:14:16;;;;;;;5.45;3.90;;;;;6.50;98625.00;;;;5052835;28;20045;-58
2023/04/27 01:16:43;;;;;;;10.80;4.03;;;;;6.40;98622.00;;;;5051843;28;20045;-59
2023/04/27 01:19:09;;;;;;;7.47;3.85;;;;;6.40;98630.00;;;;5053360;28;20037;-54
2023/04/27 01:21:36;;;;;;;6.13;3.55;;;;;6.40;98627.00;;;;5052765;28;20052;-54
2023/04/27 01:24:05;;;;;;;8.85;4.13;;;;;6.40;98640.00;;;;5052574;28;20140;-54
2023/04/27 01:26:32;;;;;;;6.32;3.95;;;;;6.40;98633.00;;;;5054180;28;20048;-57
2023/04/27 01:28:58;;;;;;;5.40;3.58;;;;;6.50;98625.00;;;;5053513;28;20091;-54
2023/04/27 01:31:26;;;;;;;6.97;3.83;;;;;6.50;98622.00;;;;5056312;28;20044;-56
2023/04/27 01:33:52;;;;;;;4.93;3.67;;;;;6.50;98626.00;;;;5054577;28;20079;-56
2023/04/27 01:36:19;;;;;;;8.13;3.60;;;;;6.50;98628.00;;;;5054379;28;20044;-54
2023/04/27 01:38:47;;;;;;;6.15;3.15;;;;;6.60;98625.00;;;;5051530;28;20049;-51
2023/04/27 01:41:13;;;;;;;4.25;3.70;;;;;6.70;98633.00;;;;5051851;28;20056;-53
2023/04/27 01:43:42;;;;;;;5.80;3.35;;;;;6.70;98638.00;;;;5052627;28;20041;-54
2023/04/27 01:46:11;;;;;;;4.15;3.38;;;;;6.70;98637.00;;;;5051315;28;20084;-54
2023/04/27 01:48:38;;;;;;;5.43;3.40;;;;;6.70;98639.00;;;;5052207;28;20106;-54
2023/04/27 01:51:05;;;;;;;8.02;3.75;;;;;6.70;98631.00;;;;5051438;28;20049;-54
2023/04/27 01:53:32;;;;;;;4.05;3.20;;;;;6.80;98629.00;;;;5052405;28;20044;-54
2023/04/27 01:55:59;;;;;;;5.30;3.50;;;;;6.80;98639.00;;;;5050913;28;20052;-56
2023/04/27 01:58:26;;;;;;;4.80;3.20;;;;;6.90;98640.00;;;;5050843;28;20477;-57
2023/04/27 02:00:53;;;;;;;6.32;3.40;;;;;6.90;98639.00;;;;5050839;28;20041;-55
2023/04/27 02:03:20;;;;;;;4.85;3.30;;;;;6.90;98643.00;;;;5050564;28;20140;-57
2023/04/27 02:05:49;;;;;;;6.80;3.20;;;;;6.90;98647.00;;;;5050988;28;20098;-55
2023/04/27 02:08:15;;;;;;;6.07;3.70;;;;;6.90;98642.00;;;;5050689;28;20073;-55
2023/04/27 02:10:43;;;;;;;7.05;3.40;;;;;6.80;98640.00;;;;5050455;28;20494;-55
2023/04/27 02:13:10;;;;;;;4.88;3.08;;;;;6.80;98634.00;;;;5050718;28;20048;-55
2023/04/27 02:15:36;;;;;;;4.22;3.20;;;;;6.60;98635.00;;;;5050683;28;20139;-55
2023/04/27 02:18:04;;;;;;;8.07;3.63;;;;;6.50;98635.00;;;;5050552;28;20049;-56
2023/04/27 02:20:31;;;;;;;6.78;3.47;;;;;6.60;98638.00;;;;5050710;28;20102;-53
2023/04/27 02:23:00;;;;;;;6.47;3.58;;;;;6.50;98642.00;;;;5050724;28;20480;-56
2023/04/27 02:25:27;;;;;;;8.77;3.58;;;;;6.60;98640.00;;;;5053211;28;20037;-57
2023/04/27 02:27:54;;;;;;;8.75;3.60;;;;;6.50;98626.00;;;;5055756;28;20049;-54
2023/04/27 02:30:21;;;;;;;7.30;3.40;;;;;6.50;98640.00;;;;5055876;28;20494;-55
2023/04/27 02:32:48;;;;;;;6.35;3.45;;;;;6.40;98636.00;;;;5054601;28;20064;-53
2023/04/27 02:35:15;;;;;;;6.80;3.30;;;;;6.40;98639.00;;;;5054664;28;20140;-54
2023/04/27 02:37:41;;;;;;;5.75;3.42;;;;;6.40;98642.00;;;;5054368;28;20086;-57
2023/04/27 02:40:09;;;;;;;7.57;3.72;;;;;6.40;98646.00;;;;5054326;28;20041;-55
2023/04/27 02:42:37;;;;;;;5.95;3.72;;;;;6.30;98649.00;;;;5055498;28;20048;-55
2023/04/27 02:45:06;;;;;;;6.15;3.67;;;;;6.40;98654.00;;;;5055626;28;20402;-55
2023/04/27 02:47:33;;;;;;;4.63;3.20;;;;;6.50;98654.00;;;;5054594;28;20049;-54
2023/04/27 02:50:00;;;;;;;5.30;3.40;;;;;6.50;98650.00;;;;5055430;28;20044;-54
2023/04/27 02:52:26;;;;;;;5.38;3.90;;;;;6.50;98656.00;;;;5055418;28;20037;-54
2023/04/27 02:54:53;;;;;;;7.75;4.03;;;;;6.50;98643.00;;;;5054770;28;20095;-54
2023/04/27 02:57:20;;;;;;;6.95;3.72;;;;;6.60;98657.00;;;;5054287;28;20540;-54
2023/04/27 02:59:46;;;;;;;9.52;3.78;;;;;6.60;98651.00;;;;5054273;28;20051;-56
2023/04/27 03:02:13;;;;;;;8.30;4.32;;;;;6.60;98647.00;;;;5056019;28;20048;-54
2023/04/27 03:04:39;;;;;;;6.65;3.95;;;;;6.60;98648.00;;;;5056208;28;20428;-54
2023/04/27 03:07:06;;;;;;;5.20;3.70;;;;;6.80;98647.00;;;;5057209;28;20539;-53
2023/04/27 03:09:32;;;;;;;5.68;3.72;;;;;6.80;98656.00;;;;5054983;28;20045;-55
2023/04/27 03:11:59;;;;;;;6.63;3.88;;;;;6.90;98647.00;;;;5053926;28;20155;-57
2023/04/27 03:14:26;;;;;;;7.60;3.88;;;;;6.90;98647.00;;;;5055234;28;20053;-55
2023/04/27 03:16:54;;;;;;;4.85;3.60;;;;;6.90;98652.00;;;;5053948;28;20052;-55
2023/04/27 03:19:21;;;;;;;5.70;3.38;;;;;6.90;98648.00;;;;5054671;28;20048;-59
2023/04/27 03:21:49;;;;;;;4.15;3.47;;;;;7.00;98643.00;;;;5053580;28;20521;-58
2023/04/27 03:24:16;;;;;;;9.75;4.20;;;;;7.00;98645.00;;;;5037335;28;20053;-55
2023/04/27 03:26:42;;;;;;;6.22;3.70;;;;;6.80;98650.00;;;;5053429;28;20059;-56
2023/04/27 03:29:09;;;;;;;15.15;3.88;;;;;6.80;98637.00;;;;5053241;28;20084;-55
2023/04/27 03:31:35;;;;;;;4.43;3.83;;;;;6.80;98632.00;;;;5053466;28;20067;-55
2023/04/27 03:34:02;;;;;;;6.22;3.60;;;;;6.70;98627.00;;;;5053304;28;20498;-56
2023/04/27 03:36:28;;;;;;;6.72;3.67;;;;;6.70;98631.00;;;;5054295;28;20121;-53
2023/04/27 03:38:55;;;;;;;8.43;3.95;;;;;6.80;98630.00;;;;5053785;28;20040;-55
2023/04/27 03:41:22;;;;;;;4.47;3.40;;;;;6.70;98630.00;;;;5053202;28;20072;-55
2023/04/27 03:43:49;;;;;;;8.98;4.20;;;;;6.70;98626.00;;;;5053110;28;20049;-55
2023/04/27 03:46:16;;;;;;;7.05;3.80;;;;;6.70;98633.00;;;;5053152;28;20044;-57
2023/04/27 03:48:43;;;;;;;6.72;3.97;;;;;6.70;98647.00;;;;5052886;28;20079;-54
2023/04/27 03:51:09;;;;;;;7.38;4.60;;;;;6.70;98638.00;;;;5054285;28;20041;-53
2023/04/27 03:53:36;;;;;;;4.47;3.60;;;;;6.80;98643.00;;;;5053036;28;20048;-56
2023/04/27 03:56:03;;;;;;;9.25;3.75;;;;;6.90;98641.00;;;;5052889;28;20044;-53
2023/04/27 03:58:30;;;;;;;8.05;3.88;;;;;6.80;98638.00;;;;5052847;28;20119;-57
2023/04/27 04:01:17;;;;;;;4.03;3.55;;;;;6.80;98643.00;;;;5052885;28;20049;-54
2023/04/27 04:03:46;;;;;;;5.97;3.90;;;;;6.80;98641.00;;;;5052665;28;20045;-54
2023/04/27 04:06:13;;;;;;;6.13;3.67;;;;;6.80;98647.00;;;;5054012;28;20051;-52
2023/04/27 04:08:39;;;;;;;7.25;3.58;;;;;6.70;98645.00;;;;5053886;28;20037;-54
2023/04/27 04:11:07;;;;;;;6.60;4.07;;;;;6.80;98639.00;;;;5052729;28;20041;-55
2023/04/27 04:13:35;;;;;;;5.07;3.47;;;;;6.80;98642.00;;;;5052535;28;20055;-58
2023/04/27 04:16:07;;;;;;;6.28;4.45;;;;;6.80;98651.00;;;;5052863;28;20391;-56
2023/04/27 04:18:35;;;;;;;7.80;4.20;;;;;6.90;98648.00;;;;5052356;28;20048;-53
2023/04/27 04:21:02;;;;;;;5.85;3.63;;;;;6.90;98646.00;;;;5052373;28;20417;-54
2023/04/27 04:23:29;;;;;;;8.45;4.00;;;;;6.80;98641.00;;;;5052775;28;20083;-55
2023/04/27 04:25:56;;;;;;;6.13;4.18;;;;;6.90;98639.00;;;;5052475;28;20041;-56
2023/04/27 04:28:26;;;;;;;7.68;3.92;;;;;7.00;98659.00;;;;5052684;28;20041;-55
2023/04/27 04:30:53;;;;;;;7.95;5.57;;;;;7.00;98645.00;;;;5052227;28;20064;-58
2023/04/27 04:33:20;;;;;;;8.80;5.40;;;;;7.10;98649.00;;;;5052323;28;20045;-55
2023/04/27 04:35:47;;;;;;;10.75;6.90;;;;;7.30;98654.00;;;;5052186;28;20044;-56
2023/04/27 04:38:14;;;;;;;8.05;4.63;;;;;7.30;98654.00;;;;5053420;28;20085;-56
2023/04/27 04:40:41;;;;;;;8.85;5.25;;;;;7.30;98651.00;;;;5053451;28;20069;-56
2023/04/27 04:43:12;;;;;;;8.93;5.45;;;;;7.40;98651.00;;;;5052026;28;20095;-54
2023/04/27 04:45:40;;;;;;;11.18;6.32;;;;;7.50;98648.00;;;;5052398;28;20049;-54
2023/04/27 04:48:07;;;;;;;8.32;4.50;;;;;7.50;98647.00;;;;5051644;28;20053;-54
2023/04/27 04:50:34;;;;;;;9.73;4.90;;;;;7.50;98646.00;;;;5051963;28;20045;-57
2023/04/27 04:53:01;;;;;;;5.05;3.55;;;;;7.60;98648.00;;;;5052699;28;20049;-52
2023/04/27 04:55:28;;;;;;;4.93;3.50;;;;;7.60;98647.00;;;;5052583;28;20417;-57
2023/04/27 04:57:54;;;;;;;4.57;3.25;;;;;7.70;98656.00;;;;5052307;28;20045;-55
2023/04/27 05:00:21;;;;;;;11.90;4.60;;;;;7.90;98665.00;;;;5035775;28;20139;-54
2023/04/27 05:02:48;;;;;;;9.55;4.38;;;;;7.80;98666.00;;;;5053676;28;20040;-54
2023/04/27 05:05:15;;;;;;;8.18;4.32;;;;;7.60;98665.00;;;;5053301;28;20516;-53
2023/04/27 05:07:42;;;;;;;9.32;3.65;;;;;7.60;98664.00;;;;5053548;28;20056;-55
2023/04/27 05:10:08;;;;;;;6.75;4.57;;;;;7.60;98663.00;;;;5053901;28;20052;-56
2023/04/27 05:12:35;;;;;;;8.18;4.10;;;;;7.60;98668.00;;;;5052571;28;20048;-54
2023/04/27 05:15:02;;;;;;;8.90;4.32;;;;;7.60;98670.00;;;;5052410;28;20053;-55
2023/04/27 05:17:29;;;;;;;7.93;4.50;;;;;7.70;98670.00;;;;5052851;28;20048;-55
2023/04/27 05:19:57;;;;;;;6.35;4.43;;;;;7.80;98672.00;;;;5052570;28;20505;-54
2023/04/27 05:22:23;;;;;;;9.63;5.45;;;;;7.90;98674.00;;;;5051315;28;20094;-55
2023/04/27 05:24:50;;;;;;;5.97;4.35;;;;;7.90;98675.00;;;;5052991;28;20045;-55
2023/04/27 05:27:17;;;;;;;9.50;4.38;;;;;7.90;98681.00;;;;5052503;28;20120;-56
2023/04/27 05:29:43;;;;;;;9.48;4.68;;;;;8.00;98685.00;;;;5052283;28;20501;-54
2023/04/27 05:32:10;;;;;;;8.73;4.50;;;;;8.00;98690.00;;;;5051500;28;20083;-54
2023/04/27 05:34:37;;;;;;;4.20;3.80;;;;;8.00;98691.00;;;;5052541;28;20049;-54
2023/04/27 05:37:03;;;;;;;9.05;4.50;;;;;7.90;98685.00;;;;5054287;28;20040;-57
2023/04/27 05:39:30;;;;;;;10.10;5.07;;;;;7.90;98695.00;;;;5053626;28;20091;-56
2023/04/27 05:41:56;;;;;;;9.20;4.40;;;;;8.00;98703.00;;;;5051523;28;20044;-57
2023/04/27 05:44:27;;;;;;;6.60;5.10;;;;;8.30;98705.00;;;;5051111;28;20513;-54
2023/04/27 05:46:55;;;;;;;5.68;4.25;;;;;8.50;98701.00;;;;5052467;28;20099;-55
2023/04/27 05:49:22;;;;;;;8.23;4.38;;;;;8.70;98698.00;;;;5052103;28;20120;-54
2023/04/27 05:51:48;;;;;;;5.35;4.00;;;;;8.90;98705.00;;;;5052149;28;20049;-54
2023/04/27 05:54:15;;;;;;;8.63;4.30;;;;;9.00;98707.00;;;;5052136;28;20083;-54
2023/04/27 05:56:41;;;;;;;8.32;4.22;;;;;9.10;98705.00;;;;5052484;28;20520;-54
2023/04/27 05:59:08;;;;;;;9.65;4.47;;;;;9.10;98706.00;;;;5051693;28;20425;-56
2023/04/27 06:01:35;;;;;;;7.65;4.60;;;;;8.90;98710.00;;;;5050294;28;20055;-56
2023/04/27 06:04:02;;;;;;;14.75;5.45;;;;;8.80;98714.00;;;;5052169;28;20044;-55
2023/04/27 06:06:34;;;;;;;7.53;4.60;;;;;8.80;98716.00;;;;5053037;28;20510;-55
2023/04/27 06:09:01;;;;;;;10.70;5.85;;;;;8.90;98726.00;;;;5051728;28;20406;-56
2023/04/27 06:11:27;;;;;;;13.05;7.43;;;;;9.00;98721.00;;;;5053454;28;20513;-54
2023/04/27 06:13:54;;;;;;;5.60;4.45;;;;;9.10;98719.00;;;;5053013;28;20049;-54
2023/04/27 06:16:20;;;;;;;6.13;4.65;;;;;9.20;98727.00;;;;5053685;28;20094;-57
2023/04/27 06:18:49;;;;;;;8.93;5.03;;;;;9.20;98719.00;;;;5052243;28;20052;-55
2023/04/27 06:21:16;;;;;;;8.27;4.32;;;;;9.30;98728.00;;;;5053454;28;20045;-56
2023/04/27 06:23:43;;;;;;;10.23;5.20;;;;;9.30;98720.00;;;;5052329;28;20040;-56
2023/04/27 06:26:10;;;;;;;11.75;4.70;;;;;9.30;98719.00;;;;5053354;28;20052;-55
2023/04/27 06:28:37;;;;;;;7.55;5.10;;;;;9.20;98726.00;;;;5052866;28;20045;-54
2023/04/27 06:31:05;;;;;;;9.60;4.72;;;;;9.30;98712.00;;;;5052877;28;20056;-56
2023/04/27 06:33:31;;;;;;;7.30;5.32;;;;;9.20;98715.00;;;;5042268;28;20136;-55
2023/04/27 06:36:00;;;;;;;7.50;4.80;;;;;9.20;98709.00;;;;5033394;28;20084;-54
2023/04/27 06:38:26;;;;;;;7.57;5.18;;;;;9.30;98723.00;;;;5032947;28;20061;-55
2023/04/27 06:40:53;;;;;;;9.65;5.30;;;;;9.40;98711.00;;;;5035765;28;20044;-54
2023/04/27 06:43:19;;;;;;;10.00;5.60;;;;;9.60;98717.00;;;;5038050;28;20115;-57
2023/04/27 06:45:46;;;;;;;7.28;4.78;;;;;9.70;98718.00;;;;5038542;28;20068;-54
2023/04/27 06:48:12;;;;;;;17.98;5.63;;;;;9.80;98725.00;;;;5039641;28;20049;-55
2023/04/27 06:50:39;;;;;;;10.98;6.07;;;;;10.10;98731.00;;;;5038520;28;20110;-54
2023/04/27 06:53:07;;;;;;;8.68;5.63;;;;;10.40;98738.00;;;;5037246;28;20137;-55
2023/04/27 06:55:33;;;;;;;8.32;5.00;;;;;10.60;98737.00;;;;5035524;28;20053;-54
2023/04/27 06:58:02;;;;;;;8.93;5.55;;;;;10.70;98732.00;;;;5038857;28;20045;-54
2023/04/27 07:00:28;;;;;;;11.30;5.35;;;;;10.70;98734.00;;;;5040088;28;20055;-54
2023/04/27 07:02:55;;;;;;;10.90;5.40;;;;;10.70;98734.00;;;;5040156;28;20087;-54
2023/04/27 07:05:22;;;;;;;9.57;5.80;;;;;10.90;98728.00;;;;5035563;28;20132;-59
2023/04/27 07:07:48;;;;;;;10.35;5.88;;;;;11.00;98719.00;;;;5030211;28;20088;-56
2023/04/27 07:10:15;;;;;;;11.55;4.95;;;;;11.20;98717.00;;;;5031154;28;20103;-57
2023/04/27 07:12:42;;;;;;;12.18;5.72;;;;;11.30;98715.00;;;;5034418;28;20395;-55
2023/04/27 07:15:09;;;;;;;9.38;5.53;;;;;11.40;98713.00;;;;5035203;28;20042;-58
2023/04/27 07:17:36;;;;;;;8.00;4.70;;;;;11.40;98715.00;;;;5035370;28;20052;-56
2023/04/27 07:20:04;;;;;;;10.43;5.32;;;;;11.50;98722.00;;;;5035387;28;20561;-55
2023/04/27 07:22:32;;;;;;;10.60;4.93;;;;;11.40;98724.00;;;;5036340;28;20109;-56
2023/04/27 07:24:59;;;;;;;12.30;5.88;;;;;11.50;98730.00;;;;5034870;28;20473;-58
2023/04/27 07:27:25;;;;;;;14.98;4.85;;;;;11.50;98727.00;;;;5035970;28;20045;-56
2023/04/27 07:29:52;;;;;;;18.73;6.72;;;;;11.50;98726.00;;;;5036039;28;20116;-56
2023/04/27 07:32:19;;;;;;;9.50;4.55;;;;;11.50;98729.00;;;;5035761;28;20128;-52
2023/04/27 07:34:47;;;;;;;14.80;5.60;;;;;11.60;98727.00;;;;5036127;28;20044;-56
2023/04/27 07:37:19;;;;;;;;;;;;;11.60;98719.00;;;;5036334;28;20069;-57
2023/04/27 07:39:47;;;;;;;7.43;3.80;;;;;11.60;98723.00;;;;5035579;28;19921;-55
2023/04/27 07:42:14;;;;;;;9.35;4.20;;;;;11.70;98719.00;;;;5035189;28;20483;-54
2023/04/27 07:44:41;;;;;;;9.48;3.92;;;;;11.80;98711.00;;;;5034646;28;20045;-57
2023/04/27 07:47:08;;;;;;;7.07;3.53;;;;;11.80;98711.00;;;;5033142;28;20061;-56
2023/04/27 07:49:36;;;;;;;7.25;4.00;;;;;12.00;98709.00;;;;5034318;28;20041;-54
2023/04/27 07:52:03;;;;;;;7.90;3.38;;;;;12.00;98707.00;;;;5034586;28;20418;-55
2023/04/27 07:54:30;;;;;;;8.77;4.32;;;;;12.00;98709.00;;;;5034502;28;20052;-57
2023/04/27 07:56:57;;;;;;;6.80;3.90;;;;;12.10;98708.00;;;;5034391;28;20049;-55
2023/04/27 07:59:23;;;;;;;5.38;3.70;;;;;12.30;98714.00;;;;5034012;28;20052;-54
2023/04/27 08:01:50;;;;;;;7.40;3.72;;;;;12.60;98715.00;;;;5033282;28;20602;-56
2023/04/27 08:04:17;;;;;;;8.70;3.60;;;;;12.80;98718.00;;;;5034258;28;20049;-53
2023/04/27 08:06:44;;;;;;;6.90;3.47;;;;;13.00;98714.00;;;;5034347;28;20120;-55
2023/04/27 08:09:12;;;;;;;10.30;4.40;;;;;13.30;98713.00;;;;5033892;28;20045;-57
2023/04/27 08:11:39;;;;;;;7.00;3.50;;;;;13.30;98718.00;;;;5016600;28;20053;-55
2023/04/27 08:14:12;;;;;;;8.75;3.60;;;;;13.30;98721.00;;;;5034019;28;20064;-55
2023/04/27 08:16:42;;;;;;;7.60;3.65;;;;;13.40;98717.00;;;;5034305;28;20053;-55
2023/04/27 08:19:10;;;;;;;6.72;3.72;;;;;13.50;98716.00;;;;5032547;28;20052;-56
2023/04/27 08:21:37;;;;;;;6.32;3.60;;;;;13.50;98712.00;;;;5033676;28;20050;-56
2023/04/27 08:24:05;;;;;;;5.40;3.92;;;;;13.70;98718.00;;;;5033076;28;20042;-55
2023/04/27 08:26:34;;;;;;;6.90;4.20;;;;;13.80;98719.00;;;;5033607;28;20106;-56
2023/04/27 08:29:01;;;;;;;8.27;4.00;;;;;13.90;98710.00;;;;5033434;28;20564;-55
2023/04/27 08:31:45;;;;;;;11.48;4.18;;;;;14.10;98711.00;;;;5032437;28;20079;-57
2023/04/27 08:34:12;;;;;;;5.75;3.50;;;;;14.20;98714.00;;;;5033740;28;20041;-55
2023/04/27 08:36:38;;;;;;;6.13;3.15;;;;;14.20;98714.00;;;;5033629;28;20410;-56
2023/04/27 08:39:06;;;;;;;7.30;3.63;;;;;14.40;98716.00;;;;5045332;28;20041;-59
2023/04/27 08:41:33;;;;;;;11.20;4.30;;;;;14.60;98717.00;;;;5053218;28;20064;-57
2023/04/27 08:43:59;;;;;;;13.95;3.65;;;;;14.60;98720.00;;;;5051861;28;20425;-55
2023/04/27 08:46:26;;;;;;;4.97;3.60;;;;;14.80;98720.00;;;;5053549;28;20048;-54
2023/04/27 08:48:54;;;;;;;6.75;4.15;;;;;14.90;98724.00;;;;5053670;28;20072;-54
2023/04/27 08:51:21;;;;;;;8.32;4.30;;;;;15.00;98715.00;;;;5053954;28;20087;-54
2023/04/27 08:53:50;;;;;;;6.82;3.88;;;;;15.20;98718.00;;;;5053120;28;20044;-56
2023/04/27 08:56:17;;;;;;;4.82;3.15;;;;;15.30;98721.00;;;;5053026;28;20485;-54
2023/04/27 08:58:44;;;;;;;11.07;3.50;;;;;15.30;98723.00;;;;5052805;28;20099;-54
2023/04/27 09:01:11;;;;;;;9.18;3.38;;;;;15.30;98710.00;;;;5052998;28;20045;-54
2023/04/27 09:03:37;;;;;;;6.63;3.72;;;;;15.40;98709.00;;;;5052708;28;20045;-57
2023/04/27 09:06:04;;;;;;;7.03;3.72;;;;;15.40;98714.00;;;;5052810;28;20045;-58
2023/04/27 09:08:41;;;;;;;7.88;2.70;;;;;15.40;98714.00;;;;5051397;28;20052;-57
2023/04/27 09:11:08;;;;;;;6.65;3.88;;;;;15.40;98717.00;;;;5052777;28;20049;-59
2023/04/27 09:13:37;;;;;;;5.07;3.00;;;;;15.50;98709.00;;;;5052923;28;20091;-59
2023/04/27 09:16:04;;;;;;;8.50;3.22;;;;;15.60;98705.00;;;;5051912;28;20049;-59
2023/04/27 09:18:35;;;;;;;4.25;2.67;;;;;15.70;98697.00;;;;5052389;28;20053;-59
2023/04/27 09:21:03;;;;;;;6.47;2.90;;;;;15.70;98698.00;;;;5052564;28;20045;-59
2023/04/27 09:23:30;;;;;;;5.05;3.17;;;;;15.90;98700.00;;;;5051353;28;20102;-54
2023/04/27 09:25:59;;;;;;;9.27;3.63;;;;;16.00;98702.00;;;;5052556;28;20052;-55
2023/04/27 09:28:27;;;;;;;7.53;2.90;;;;;16.10;98698.00;;;;5052551;28;20045;-54
2023/04/27 09:30:55;;;;;;;7.70;2.97;;;;;16.30;98697.00;;;;5052362;28;20387;-53
2023/04/27 09:33:32;;;;;;;9.27;6.28;;;;;16.50;98694.00;;;;5052358;28;20417;-54
2023/04/27 09:36:05;;;;;;;5.95;3.63;;;;;16.50;98696.00;;;;5052925;28;20107;-55
2023/04/27 09:38:32;;;;;;;6.78;2.92;;;;;16.70;98701.00;;;;5053326;28;20535;-55
2023/04/27 09:40:59;;;;;;;7.53;2.88;;;;;17.00;98700.00;;;;5052656;28;20442;-57
2023/04/27 09:43:28;;;;;;;6.38;2.60;;;;;17.20;98707.00;;;;5053374;28;20413;-54
2023/04/27 09:45:55;;;;;;;6.00;2.90;;;;;17.30;98707.00;;;;5053380;28;20494;-57
2023/04/27 09:48:23;;;;;;;4.60;3.03;;;;;17.30;98699.00;;;;5053568;28;20048;-55
2023/04/27 09:50:51;;;;;;;4.80;3.20;;;;;17.30;98699.00;;;;5050900;28;20049;-54
2023/04/27 09:53:27;;;;;;;8.32;3.10;;;;;17.40;98692.00;;;;5052359;28;20041;-55
2023/04/27 09:56:24;;;;;;;7.47;4.32;;;;;17.50;98693.00;;;;5052208;28;20052;-55
2023/04/27 09:59:17;;;;;;;6.38;2.80;;;;;17.60;98688.00;;;;5052315;28;20037;-57
2023/04/27 10:01:58;;;;;;;7.93;3.00;;;;;17.90;98703.00;;;;5030632;28;20399;-55
2023/04/27 10:04:46;;;;;;;7.30;2.70;;;;;18.10;98698.00;;;;5034981;28;20049;-55
2023/04/27 10:07:16;;;;;;;5.93;2.45;;;;;18.10;98703.00;;;;5051184;28;20059;-56
2023/04/27 10:09:48;;;;;;;4.45;2.55;;;;;18.10;98693.00;;;;5052560;28;20040;-55
2023/04/27 10:12:20;;;;;;;5.55;2.65;;;;;18.10;98695.00;;;;5052086;28;20037;-52
2023/04/27 10:14:47;;;;;;;7.18;2.78;;;;;18.00;98696.00;;;;5052176;28;20049;-54
2023/04/27 10:17:14;;;;;;;6.28;2.65;;;;;17.80;98690.00;;;;5051856;28;20041;-55
2023/04/27 10:19:53;;;;;;;7.13;3.13;;;;;17.70;98696.00;;;;5052030;28;20043;-53
2023/04/27 10:22:23;;;;;;;5.78;3.03;;;;;17.70;98706.00;;;;5052357;28;20041;-53
2023/04/27 10:24:51;;;;;;;7.55;3.03;;;;;17.80;98699.00;;;;5052265;28;20118;-56
2023/04/27 10:27:20;;;;;;;4.60;2.50;;;;;17.80;98702.00;;;;5052150;28;20041;-55
2023/04/27 10:29:48;;;;;;;6.75;3.03;;;;;17.70;98698.00;;;;5052120;28;20420;-55
2023/04/27 10:32:25;;;;;;;4.28;2.88;;;;;17.80;98700.00;;;;5034938;28;20045;-55
2023/04/27 10:35:05;;;;;;;7.68;3.22;;;;;17.80;98700.00;;;;5034555;28;20099;-54
2023/04/27 10:37:42;;;;;;;6.50;2.60;;;;;17.80;98698.00;;;;5052472;28;20048;-53
2023/04/27 10:40:13;;;;;;;4.32;2.25;;;;;18.10;98698.00;;;;5051985;28;20049;-56
2023/04/27 10:42:41;;;;;;;4.55;2.75;;;;;18.30;98688.00;;;;5053056;28;20502;-57
2023/04/27 10:45:08;;;;;;;7.65;2.20;;;;;18.50;98685.00;;;;5053081;28;20049;-59
2023/04/27 10:47:40;;;;;;;5.85;2.42;;;;;18.50;98682.00;;;;5056039;28;20048;-59
2023/04/27 10:50:10;;;;;;;5.28;2.42;;;;;18.50;98681.00;;;;5056185;28;20045;-59
2023/04/27 10:52:43;;;;;;;4.95;2.60;;;;;18.50;98679.00;;;;5056009;28;20071;-60
2023/04/27 10:55:17;;;;;;;4.80;2.40;;;;;18.50;98678.00;;;;5056161;28;20059;-55
2023/04/27 10:57:55;;;;;;;4.55;2.65;;;;;18.70;98680.00;;;;5055633;28;20041;-56
2023/04/27 11:00:22;;;;;;;5.53;2.38;;;;;18.60;98670.00;;;;5055112;28;20078;-55
2023/04/27 11:02:49;;;;;;;7.00;2.75;;;;;18.60;98674.00;;;;5055639;28;20044;-59
2023/04/27 11:05:22;;;;;;;5.68;2.85;;;;;18.50;98674.00;;;;5054139;28;20076;-55
2023/04/27 11:07:50;;;;;;;12.20;9.25;;;;;18.60;98675.00;;;;5055210;28;20502;-55
2023/04/27 11:10:17;;;;;;;4.90;2.63;;;;;18.70;98670.00;;;;5055071;28;20033;-55
2023/04/27 11:12:44;;;;;;;6.80;2.50;;;;;18.70;98668.00;;;;5053769;28;20049;-56
2023/04/27 11:15:12;;;;;;;4.82;2.50;;;;;18.90;98660.00;;;;5055328;28;20041;-55
2023/04/27 11:17:39;;;;;;;4.40;2.50;;;;;18.90;98656.00;;;;5055122;28;20044;-55
2023/04/27 11:20:08;;;;;;;4.30;2.22;;;;;19.00;98657.00;;;;5053723;28;20049;-55
2023/04/27 11:22:45;;;;;;;4.50;2.40;;;;;19.20;98656.00;;;;5055062;28;20040;-55
2023/04/27 11:25:11;;;;;;;10.15;2.70;;;;;19.00;98650.00;;;;5054995;28;20052;-56
2023/04/27 11:27:39;;;;;;;5.95;2.25;;;;;18.90;98647.00;;;;5054763;28;20079;-56
2023/04/27 11:30:18;;;;;;;5.63;2.40;;;;;18.90;98641.00;;;;5054647;28;20045;-55
2023/04/27 11:32:44;;;;;;;5.22;2.20;;;;;19.00;98649.00;;;;5054919;28;20048;-56
2023/04/27 11:35:11;;;;;;;5.47;2.20;;;;;19.10;98645.00;;;;5055357;28;20118;-54
2023/04/27 11:37:37;;;;;;;4.97;2.20;;;;;19.00;98639.00;;;;5054690;28;20059;-55
2023/04/27 11:40:04;;;;;;;5.00;2.40;;;;;19.10;98642.00;;;;5053202;28;20597;-55
2023/04/27 11:42:31;;;;;;;5.15;2.28;;;;;19.30;98637.00;;;;5054595;28;20044;-54
2023/04/27 11:44:59;;;;;;;3.35;2.17;;;;;19.50;98641.00;;;;5054505;28;20111;-55
2023/04/27 11:47:28;;;;;;;6.05;1.98;;;;;19.60;98643.00;;;;5054701;28;20469;-53
2023/04/27 11:49:56;;;;;;;6.20;2.65;;;;;19.70;98642.00;;;;5054494;28;20123;-57
2023/04/27 11:52:37;;;;;;;4.22;2.40;;;;;19.80;98641.00;;;;5054558;28;20060;-54
2023/04/27 11:55:07;;;;;;;5.63;2.10;;;;;19.70;98640.00;;;;5054826;28;20467;-55
2023/04/27 11:57:35;;;;;;;3.08;2.03;;;;;19.60;98636.00;;;;5053827;28;20123;-55
2023/04/27 12:00:09;;;;;;;4.00;2.50;;;;;19.60;98627.00;;;;5054201;28;20037;-54
2023/04/27 12:02:41;;;;;;;4.60;2.10;;;;;19.60;98622.00;;;;5054847;28;20383;-55
2023/04/27 12:05:08;;;;;;;5.47;2.50;;;;;19.70;98621.00;;;;5053227;28;20037;-55
2023/04/27 12:07:35;;;;;;;2.63;1.80;;;;;19.80;98629.00;;;;5054062;28;20045;-56
2023/04/27 12:10:02;;;;;;;3.92;2.03;;;;;20.10;98628.00;;;;5053828;28;20116;-58
2023/04/27 12:12:28;;;;;;;3.67;1.70;;;;;20.30;98626.00;;;;5053985;28;20045;-59
2023/04/27 12:14:55;;;;;;;4.55;1.90;;;;;20.60;98620.00;;;;5054159;28;20049;-58
2023/04/27 12:17:22;;;;;;;4.20;2.10;;;;;20.70;98626.00;;;;5053968;28;20452;-59
2023/04/27 12:19:48;;;;;;;3.22;1.75;;;;;20.60;98617.00;;;;5053630;28;20052;-59
2023/04/27 12:22:15;;;;;;;4.63;1.92;;;;;20.50;98626.00;;;;5054190;28;20045;-59
2023/04/27 12:24:41;;;;;;;4.95;2.17;;;;;20.60;98622.00;;;;5053701;28;20494;-58